createdAt,value
2018-07-13T00:01:08.796Z,14.80
2018-07-13T00:03:38.072Z,14.80
2018-07-13T00:06:07.351Z,14.80
2018-07-13T00:08:41.413Z,14.80
2018-07-13T00:11:10.779Z,14.80
2018-07-13T00:13:48.547Z,14.80
2018-07-13T00:16:17.993Z,14.70
2018-07-13T00:18:47.279Z,14.80
2018-07-13T00:21:16.757Z,14.70
2018-07-13T00:23:46.061Z,14.70
2018-07-13T00:26:15.365Z,14.70
2018-07-13T00:28:44.822Z,14.70
2018-07-13T00:31:14.231Z,14.70
2018-07-13T00:33:43.599Z,14.70
2018-07-13T00:36:13.017Z,14.70
2018-07-13T00:38:42.552Z,14.70
2018-07-13T00:41:11.905Z,14.70
2018-07-13T00:43:41.221Z,14.70
2018-07-13T00:46:10.926Z,14.70
2018-07-13T00:48:40.410Z,14.70
2018-07-13T00:51:09.760Z,14.70
2018-07-13T00:53:39.068Z,14.70
2018-07-13T00:56:08.484Z,14.60
2018-07-13T01:00:07.109Z,14.60
2018-07-13T01:02:36.316Z,14.60
2018-07-13T01:05:05.528Z,14.60
2018-07-13T01:07:34.760Z,14.60
2018-07-13T01:10:04.072Z,14.60
2018-07-13T01:12:33.360Z,14.50
2018-07-13T01:15:02.581Z,14.50
2018-07-13T01:17:31.788Z,14.50
2018-07-13T01:20:01.092Z,14.50
2018-07-13T01:22:30.328Z,14.50
2018-07-13T01:24:59.634Z,14.50
2018-07-13T01:27:29.046Z,14.40
2018-07-13T01:29:58.878Z,14.40
2018-07-13T01:32:28.494Z,14.40
2018-07-13T01:34:57.823Z,14.40
2018-07-13T01:37:27.201Z,14.30
2018-07-13T01:39:56.563Z,14.30
2018-07-13T01:42:25.875Z,14.20
2018-07-13T01:44:55.295Z,14.20
2018-07-13T01:47:24.551Z,14.20
2018-07-13T01:49:53.996Z,14.20
2018-07-13T01:52:23.291Z,14.10
2018-07-13T01:54:52.583Z,14.10
2018-07-13T01:57:21.856Z,14.00
2018-07-13T01:59:51.093Z,13.90
2018-07-13T02:02:20.437Z,13.90
2018-07-13T02:04:49.888Z,13.80
2018-07-13T02:07:19.234Z,13.80
2018-07-13T02:09:49.301Z,13.80
2018-07-13T02:12:18.705Z,13.70
2018-07-13T02:14:48.105Z,13.70
2018-07-13T02:17:17.482Z,13.70
2018-07-13T02:19:46.970Z,13.70
2018-07-13T02:22:16.388Z,13.70
2018-07-13T02:24:46.048Z,13.70
2018-07-13T02:27:16.212Z,13.70
2018-07-13T02:29:45.591Z,13.70
2018-07-13T02:32:15.002Z,13.70
2018-07-13T02:34:44.381Z,13.70
2018-07-13T02:37:13.778Z,13.60
2018-07-13T02:39:43.109Z,13.60
2018-07-13T02:42:12.404Z,13.50
2018-07-13T02:44:41.922Z,13.50
2018-07-13T02:47:11.254Z,13.40
2018-07-13T02:49:40.621Z,13.50
2018-07-13T02:52:09.961Z,13.50
2018-07-13T02:54:39.345Z,13.50
2018-07-13T02:57:08.727Z,13.50
2018-07-13T02:59:38.110Z,13.40
2018-07-13T03:02:07.402Z,13.40
2018-07-13T03:04:36.714Z,13.40
2018-07-13T03:07:06.336Z,13.50
2018-07-13T03:09:35.725Z,13.50
2018-07-13T03:12:05.082Z,13.60
2018-07-13T03:14:34.554Z,13.70
2018-07-13T03:17:03.928Z,13.70
2018-07-13T03:19:33.314Z,13.70
2018-07-13T03:22:02.776Z,13.80
2018-07-13T03:24:32.076Z,13.80
2018-07-13T03:27:01.458Z,13.80
2018-07-13T03:29:30.876Z,13.90
2018-07-13T03:32:00.486Z,13.90
2018-07-13T03:34:30.042Z,14.00
2018-07-13T03:36:59.548Z,14.00
2018-07-13T03:39:29.142Z,14.00
2018-07-13T03:41:58.566Z,14.10
2018-07-13T03:44:28.111Z,14.10
2018-07-13T03:46:57.413Z,14.20
2018-07-13T03:49:26.854Z,14.20
2018-07-13T03:51:56.578Z,14.20
2018-07-13T03:54:26.283Z,14.30
2018-07-13T03:56:56.004Z,14.30
2018-07-13T03:59:25.598Z,14.30
2018-07-13T04:01:55.105Z,14.30
2018-07-13T04:04:24.383Z,14.40
2018-07-13T04:06:53.855Z,14.40
2018-07-13T04:09:23.455Z,14.40
2018-07-13T04:11:52.990Z,14.40
2018-07-13T04:14:22.320Z,14.40
2018-07-13T04:16:51.793Z,14.40
2018-07-13T04:19:21.201Z,14.40
2018-07-13T04:21:50.575Z,14.40
2018-07-13T04:24:20.017Z,14.40
2018-07-13T04:26:49.471Z,14.40
2018-07-13T04:29:19.118Z,14.40
2018-07-13T04:31:48.460Z,14.40
2018-07-13T04:34:17.826Z,14.50
2018-07-13T04:36:47.181Z,14.50
2018-07-13T04:39:16.661Z,14.50
2018-07-13T04:41:46.069Z,14.50
2018-07-13T04:44:15.372Z,14.50
2018-07-13T04:46:45.114Z,14.50
2018-07-13T04:49:14.507Z,14.60
2018-07-13T04:51:43.931Z,14.60
2018-07-13T04:54:13.408Z,14.70
2018-07-13T04:56:43.148Z,14.70
2018-07-13T04:59:12.758Z,14.80
2018-07-13T05:01:42.387Z,14.80
2018-07-13T05:04:11.874Z,15.00
2018-07-13T05:06:41.320Z,15.10
2018-07-13T05:09:10.764Z,15.20
2018-07-13T05:11:40.181Z,15.30
2018-07-13T05:14:09.635Z,15.50
2018-07-13T05:16:39.155Z,15.60
2018-07-13T05:19:08.729Z,15.70
2018-07-13T05:21:38.103Z,15.80
2018-07-13T05:24:07.790Z,15.90
2018-07-13T05:26:37.308Z,16.00
2018-07-13T05:29:07.791Z,16.10
2018-07-13T05:31:37.432Z,16.10
2018-07-13T05:34:06.937Z,16.20
2018-07-13T05:36:36.310Z,16.30
2018-07-13T05:39:08.932Z,16.40
2018-07-13T05:41:38.634Z,16.50
2018-07-13T05:44:08.184Z,16.60
2018-07-13T05:46:37.630Z,16.60
2018-07-13T05:49:07.008Z,16.70
2018-07-13T05:51:36.557Z,16.80
2018-07-13T05:54:06.117Z,16.80
2018-07-13T05:56:35.499Z,17.00
2018-07-13T05:59:04.958Z,17.10
2018-07-13T06:01:34.320Z,17.20
2018-07-13T06:04:03.857Z,17.40
2018-07-13T06:06:33.200Z,17.60
2018-07-13T06:09:02.774Z,17.80
2018-07-13T06:11:32.192Z,17.90
2018-07-13T06:14:01.506Z,18.00
2018-07-13T06:16:36.452Z,18.00
2018-07-13T06:19:13.905Z,17.90
2018-07-13T06:21:54.082Z,17.80
2018-07-13T06:24:30.382Z,17.80
2018-07-13T06:27:00.406Z,17.80
2018-07-13T06:29:29.762Z,17.80
2018-07-13T06:31:59.248Z,17.80
2018-07-13T06:34:28.642Z,18.00
2018-07-13T06:36:58.365Z,18.20
2018-07-13T06:39:27.817Z,18.50
2018-07-13T06:41:57.463Z,18.70
2018-07-13T06:44:26.935Z,18.90
2018-07-13T06:46:56.439Z,19.20
2018-07-13T06:49:25.875Z,19.50
2018-07-13T06:51:55.428Z,19.70
2018-07-13T06:54:24.896Z,19.90
2018-07-13T06:56:54.441Z,20.10
2018-07-13T06:59:23.718Z,20.10
2018-07-13T07:01:53.235Z,20.20
2018-07-13T07:04:39.272Z,20.30
2018-07-13T07:07:12.086Z,20.10
2018-07-13T07:09:43.190Z,20.20
2018-07-13T07:13:01.702Z,20.00
2018-07-13T07:15:32.462Z,19.90
2018-07-13T07:18:01.724Z,19.90
2018-07-13T07:20:31.279Z,20.00
2018-07-13T07:23:00.846Z,20.00
2018-07-13T07:25:30.806Z,19.90
2018-07-13T07:28:00.363Z,20.00
2018-07-13T07:30:29.825Z,20.00
2018-07-13T07:32:59.201Z,20.10
2018-07-13T07:35:28.546Z,19.80
2018-07-13T07:37:57.965Z,19.90
2018-07-13T07:40:29.960Z,20.10
2018-07-13T07:42:59.759Z,20.20
2018-07-13T07:45:29.173Z,20.40
2018-07-13T07:47:58.430Z,20.40
2018-07-13T07:50:27.671Z,20.50
2018-07-13T07:52:57.226Z,20.50
2018-07-13T07:55:26.635Z,20.70
2018-07-13T07:57:56.286Z,20.80
2018-07-13T08:00:25.687Z,21.00
2018-07-13T08:02:55.204Z,20.70
2018-07-13T08:05:24.588Z,20.90
2018-07-13T08:07:54.290Z,20.70
2018-07-13T08:10:24.164Z,20.90
2018-07-13T08:12:53.782Z,20.90
2018-07-13T08:15:23.914Z,20.80
2018-07-13T08:17:53.499Z,21.00
2018-07-13T08:20:29.231Z,21.20
2018-07-13T08:23:01.004Z,21.20
2018-07-13T08:25:31.168Z,21.10
2018-07-13T08:28:01.957Z,21.10
2018-07-13T08:30:40.224Z,21.10
2018-07-13T08:33:09.634Z,21.00
2018-07-13T08:35:38.958Z,21.00
2018-07-13T08:38:08.348Z,21.20
2018-07-13T08:40:37.944Z,21.50
2018-07-13T08:43:07.420Z,21.30
2018-07-13T08:45:36.823Z,21.30
2018-07-13T08:48:06.300Z,21.60
2018-07-13T08:50:35.647Z,21.30
2018-07-13T08:53:05.417Z,21.00
2018-07-13T08:55:34.899Z,21.40
2018-07-13T08:58:04.472Z,21.40
2018-07-13T09:00:34.010Z,21.70
2018-07-13T09:03:03.419Z,21.60
2018-07-13T09:05:32.860Z,21.30
2018-07-13T09:08:02.236Z,21.40
2018-07-13T09:10:31.824Z,21.80
2018-07-13T09:13:01.331Z,21.80
2018-07-13T09:15:30.650Z,21.80
2018-07-13T09:17:59.919Z,21.80
2018-07-13T09:20:29.350Z,21.70
2018-07-13T09:22:58.829Z,21.70
2018-07-13T09:25:28.251Z,22.10
2018-07-13T09:27:57.749Z,22.60
2018-07-13T09:30:27.248Z,23.20
2018-07-13T09:32:56.724Z,23.10
2018-07-13T09:35:26.057Z,23.10
2018-07-13T09:37:55.653Z,23.20
2018-07-13T09:40:25.138Z,23.60
2018-07-13T09:42:55.167Z,23.70
2018-07-13T09:45:24.737Z,23.40
2018-07-13T09:47:54.189Z,23.50
2018-07-13T09:50:23.667Z,23.60
2018-07-13T09:52:53.117Z,23.80
2018-07-13T09:55:22.575Z,23.70
2018-07-13T09:57:51.979Z,23.60
2018-07-13T10:00:21.515Z,23.60
2018-07-13T10:02:51.091Z,23.90
2018-07-13T10:05:20.577Z,24.10
2018-07-13T10:07:50.153Z,23.90
2018-07-13T10:10:19.592Z,24.00
2018-07-13T10:12:49.065Z,24.30
2018-07-13T10:15:18.587Z,23.60
2018-07-13T10:17:47.924Z,24.00
2018-07-13T10:20:17.296Z,24.10
2018-07-13T10:22:47.063Z,24.10
2018-07-13T10:25:16.621Z,24.10
2018-07-13T10:27:46.069Z,24.10
2018-07-13T10:30:15.816Z,23.90
2018-07-13T10:32:45.524Z,23.90
2018-07-13T10:35:14.952Z,24.20
2018-07-13T10:37:44.385Z,24.40
2018-07-13T10:40:13.787Z,24.60
2018-07-13T10:42:43.239Z,24.70
2018-07-13T10:45:12.649Z,24.50
2018-07-13T10:47:41.987Z,24.40
2018-07-13T10:50:11.273Z,24.50
2018-07-13T10:52:40.909Z,24.40
2018-07-13T10:55:10.554Z,24.80
2018-07-13T10:57:41.913Z,25.10
2018-07-13T11:00:11.267Z,24.50
2018-07-13T11:02:40.744Z,24.50
2018-07-13T11:05:10.202Z,24.70
2018-07-13T11:07:39.583Z,25.10
2018-07-13T11:10:09.104Z,25.20
2018-07-13T11:12:38.463Z,24.40
2018-07-13T11:15:07.783Z,24.20
2018-07-13T11:17:37.185Z,24.60
2018-07-13T11:20:06.781Z,24.90
2018-07-13T11:22:36.204Z,24.90
2018-07-13T11:25:05.751Z,24.60
2018-07-13T11:27:35.175Z,24.70
2018-07-13T11:30:04.616Z,24.90
2018-07-13T11:32:34.063Z,24.80
2018-07-13T11:35:03.563Z,24.20
2018-07-13T11:37:33.135Z,24.00
2018-07-13T11:40:02.441Z,24.20
2018-07-13T11:42:31.921Z,24.60
2018-07-13T11:45:01.388Z,24.50
2018-07-13T11:47:31.058Z,25.10
2018-07-13T11:50:00.494Z,25.10
2018-07-13T11:52:29.784Z,24.90
2018-07-13T11:54:59.228Z,24.50
2018-07-13T11:57:28.598Z,24.60
2018-07-13T11:59:58.110Z,24.80
2018-07-13T12:02:27.637Z,25.30
2018-07-13T12:04:57.261Z,25.40
2018-07-13T12:07:26.650Z,25.80
2018-07-13T12:09:56.095Z,25.50
2018-07-13T12:12:25.784Z,26.00
2018-07-13T12:14:55.254Z,26.70
2018-07-13T12:17:24.653Z,26.60
2018-07-13T12:19:54.097Z,26.60
2018-07-13T12:22:23.368Z,26.40
2018-07-13T12:24:52.944Z,26.40
2018-07-13T12:27:22.398Z,25.90
2018-07-13T12:29:51.754Z,25.70
2018-07-13T12:32:21.210Z,25.90
2018-07-13T12:34:50.471Z,25.90
2018-07-13T12:37:19.917Z,26.50
2018-07-13T12:39:49.327Z,26.30
2018-07-13T12:42:18.724Z,25.70
2018-07-13T12:44:48.072Z,26.40
2018-07-13T12:47:17.482Z,26.40
2018-07-13T12:49:46.792Z,26.10
2018-07-13T12:52:16.297Z,25.90
2018-07-13T12:54:45.765Z,26.20
2018-07-13T12:57:15.256Z,25.80
2018-07-13T12:59:44.735Z,26.20
2018-07-13T13:02:14.086Z,26.40
2018-07-13T13:04:43.546Z,26.90
2018-07-13T13:07:13.033Z,27.10
2018-07-13T13:09:42.380Z,27.80
2018-07-13T13:12:11.862Z,27.70
2018-07-13T13:14:41.104Z,27.50
2018-07-13T13:17:10.432Z,26.50
2018-07-13T13:19:39.947Z,26.60
2018-07-13T13:22:09.311Z,26.20
2018-07-13T13:24:38.660Z,25.90
2018-07-13T13:27:07.952Z,25.70
2018-07-13T13:29:37.234Z,25.90
2018-07-13T13:32:06.730Z,25.80
2018-07-13T13:34:36.052Z,25.60
2018-07-13T13:37:05.364Z,25.90
2018-07-13T13:39:34.748Z,26.30
2018-07-13T13:42:04.105Z,26.40
2018-07-13T13:44:33.449Z,26.40
2018-07-13T13:47:02.849Z,26.90
2018-07-13T13:49:32.177Z,26.00
2018-07-13T13:52:01.577Z,26.30
2018-07-13T13:54:31.016Z,26.20
2018-07-13T13:57:00.504Z,26.00
2018-07-13T13:59:30.058Z,25.80
2018-07-13T14:01:59.395Z,25.40
2018-07-13T14:04:28.835Z,25.60
2018-07-13T14:06:58.266Z,25.70
2018-07-13T14:09:27.727Z,25.70
2018-07-13T14:11:57.095Z,25.90
2018-07-13T14:14:26.467Z,25.90
2018-07-13T14:16:55.845Z,25.80
2018-07-13T14:19:25.205Z,25.60
2018-07-13T14:21:54.659Z,25.60
2018-07-13T14:24:24.012Z,25.50
2018-07-13T14:26:54.513Z,25.20
2018-07-13T14:29:23.771Z,25.20
2018-07-13T14:31:53.224Z,25.40
2018-07-13T14:34:22.651Z,25.00
2018-07-13T14:36:51.967Z,25.20
2018-07-13T14:39:21.284Z,25.20
2018-07-13T14:41:50.975Z,25.50
2018-07-13T14:44:20.385Z,25.40
2018-07-13T14:46:49.702Z,25.30
2018-07-13T14:49:19.175Z,25.60
2018-07-13T14:51:48.553Z,25.40
2018-07-13T14:54:18.124Z,25.20
2018-07-13T14:56:47.527Z,25.10
2018-07-13T14:59:16.899Z,25.40
2018-07-13T15:01:46.396Z,24.80
2018-07-13T15:04:15.915Z,24.50
2018-07-13T15:06:46.279Z,24.70
2018-07-13T15:09:15.609Z,24.60
2018-07-13T15:11:45.260Z,24.60
2018-07-13T15:14:14.746Z,24.50
2018-07-13T15:16:44.276Z,24.50
2018-07-13T15:19:13.571Z,24.40
2018-07-13T15:21:43.010Z,24.40
2018-07-13T15:24:12.335Z,24.50
2018-07-13T15:26:41.727Z,24.50
2018-07-13T15:29:11.235Z,24.50
2018-07-13T15:31:40.760Z,24.20
2018-07-13T15:34:10.024Z,23.90
2018-07-13T15:36:39.405Z,23.90
2018-07-13T15:39:09.081Z,24.00
2018-07-13T15:41:38.548Z,24.40
2018-07-13T15:44:07.913Z,24.90
2018-07-13T15:46:37.195Z,24.90
2018-07-13T15:49:06.596Z,25.40
2018-07-13T15:51:36.054Z,25.60
2018-07-13T15:54:05.450Z,25.60
2018-07-13T15:56:34.761Z,25.80
2018-07-13T15:59:04.108Z,25.40
2018-07-13T16:01:33.443Z,25.40
2018-07-13T16:04:02.721Z,25.20
2018-07-13T16:06:32.189Z,25.20
2018-07-13T16:09:01.555Z,25.40
2018-07-13T16:11:30.914Z,25.40
2018-07-13T16:14:00.320Z,25.10
2018-07-13T16:16:29.747Z,25.20
2018-07-13T16:18:59.133Z,25.10
2018-07-13T16:21:28.447Z,24.80
2018-07-13T16:23:57.739Z,25.20
2018-07-13T16:26:27.169Z,25.40
2018-07-13T16:28:56.473Z,25.30
2018-07-13T16:31:25.949Z,25.40
2018-07-13T16:33:55.376Z,24.80
2018-07-13T16:36:24.778Z,24.60
2018-07-13T16:38:54.067Z,24.60
2018-07-13T16:41:23.398Z,24.50
2018-07-13T16:43:52.751Z,24.70
2018-07-13T16:46:22.150Z,25.10
2018-07-13T16:48:51.528Z,24.80
2018-07-13T16:51:20.931Z,24.80
2018-07-13T16:53:50.331Z,25.00
2018-07-13T16:56:19.690Z,24.50
2018-07-13T16:58:48.964Z,24.40
2018-07-13T17:01:30.131Z,24.20
2018-07-13T17:04:03.213Z,24.70
2018-07-13T17:06:32.587Z,24.20
2018-07-13T17:09:02.008Z,24.20
2018-07-13T17:11:31.520Z,23.80
2018-07-13T17:14:00.924Z,23.50
2018-07-13T17:16:30.386Z,23.20
2018-07-13T17:18:59.728Z,22.80
2018-07-13T17:21:29.141Z,22.60
2018-07-13T17:23:58.615Z,22.60
2018-07-13T17:26:27.999Z,22.30
2018-07-13T17:28:57.346Z,22.20
2018-07-13T17:31:26.734Z,22.20
2018-07-13T17:33:56.144Z,22.00
2018-07-13T17:36:25.461Z,22.00
2018-07-13T17:38:54.892Z,22.00
2018-07-13T17:41:24.456Z,21.70
2018-07-13T17:43:53.858Z,21.60
2018-07-13T17:46:23.420Z,21.60
2018-07-13T17:48:52.740Z,21.50
2018-07-13T17:51:22.120Z,21.50
2018-07-13T17:53:51.456Z,21.50
2018-07-13T17:56:20.748Z,21.50
2018-07-13T17:58:50.352Z,21.30
2018-07-13T18:01:19.913Z,21.30
2018-07-13T18:03:49.226Z,21.30
2018-07-13T18:06:18.570Z,21.20
2018-07-13T18:08:47.929Z,21.20
2018-07-13T18:11:17.311Z,21.10
2018-07-13T18:13:46.683Z,21.00
2018-07-13T18:16:16.185Z,20.90
2018-07-13T18:18:45.545Z,20.80
2018-07-13T18:21:14.875Z,20.90
2018-07-13T18:23:44.229Z,20.90
2018-07-13T18:26:13.816Z,20.80
2018-07-13T18:28:43.226Z,20.80
2018-07-13T18:31:12.789Z,20.70
2018-07-13T18:33:42.204Z,20.60
2018-07-13T18:36:11.674Z,20.60
2018-07-13T18:38:41.297Z,20.40
2018-07-13T18:41:10.691Z,20.30
2018-07-13T18:43:40.093Z,20.30
2018-07-13T18:46:09.576Z,20.30
2018-07-13T18:48:39.144Z,20.30
2018-07-13T18:51:09.000Z,20.20
2018-07-13T18:53:38.524Z,20.20
2018-07-13T18:56:08.258Z,20.10
2018-07-13T18:58:37.831Z,19.90
2018-07-13T19:01:07.347Z,19.80
2018-07-13T19:03:36.635Z,19.80
2018-07-13T19:06:06.293Z,19.60
2018-07-13T19:08:37.467Z,19.50
2018-07-13T19:11:07.264Z,19.40
2018-07-13T19:13:36.743Z,19.30
2018-07-13T19:16:06.034Z,19.20
2018-07-13T19:18:35.248Z,19.10
2018-07-13T19:21:04.588Z,19.00
2018-07-13T19:23:33.953Z,19.00
2018-07-13T19:26:03.794Z,18.90
2018-07-13T19:28:33.234Z,18.80
2018-07-13T19:31:02.767Z,18.80
2018-07-13T19:33:32.375Z,18.70
2018-07-13T19:36:01.868Z,18.60
2018-07-13T19:38:31.388Z,18.50
2018-07-13T19:41:00.780Z,18.40
2018-07-13T19:43:30.362Z,18.40
2018-07-13T19:46:00.000Z,18.30
2018-07-13T19:48:29.972Z,18.10
2018-07-13T19:50:59.646Z,18.10
2018-07-13T19:53:29.188Z,18.00
2018-07-13T19:55:58.504Z,17.90
2018-07-13T19:58:27.966Z,17.80
2018-07-13T20:00:57.456Z,17.80
2018-07-13T20:03:27.021Z,17.70
2018-07-13T20:05:56.360Z,17.60
2018-07-13T20:08:26.049Z,17.60
2018-07-13T20:10:55.413Z,17.50
2018-07-13T20:13:24.921Z,17.40
2018-07-13T20:15:54.291Z,17.30
2018-07-13T20:18:23.807Z,17.30
2018-07-13T20:20:53.227Z,17.20
2018-07-13T20:23:22.528Z,17.10
2018-07-13T20:25:51.864Z,17.00
2018-07-13T20:28:21.204Z,16.90
2018-07-13T20:30:52.816Z,16.90
2018-07-13T20:33:23.553Z,16.80
2018-07-13T20:35:52.855Z,16.80
2018-07-13T20:38:22.166Z,16.70
2018-07-13T20:40:51.795Z,16.70
2018-07-13T20:43:21.157Z,16.60
2018-07-13T20:45:50.466Z,16.50
2018-07-13T20:48:19.886Z,16.40
2018-07-13T20:50:49.256Z,16.40
2018-07-13T20:53:18.660Z,16.30
2018-07-13T20:55:48.029Z,16.30
2018-07-13T20:58:17.344Z,16.20
2018-07-13T21:00:46.592Z,16.20
2018-07-13T21:03:16.026Z,16.10
2018-07-13T21:05:45.354Z,16.10
2018-07-13T21:08:14.704Z,16.10
2018-07-13T21:10:43.995Z,16.00
2018-07-13T21:13:13.369Z,16.00
2018-07-13T21:15:42.781Z,15.90
2018-07-13T21:18:12.203Z,15.90
2018-07-13T21:20:41.639Z,15.90
2018-07-13T21:23:11.179Z,15.90
2018-07-13T21:25:40.609Z,15.80
2018-07-13T21:28:10.014Z,15.80
2018-07-13T21:30:39.365Z,15.70
2018-07-13T21:33:08.612Z,15.70
2018-07-13T21:35:38.042Z,15.70
2018-07-13T21:38:07.463Z,15.70
2018-07-13T21:40:36.781Z,15.60
2018-07-13T21:43:06.335Z,15.60
2018-07-13T21:45:35.637Z,15.50
2018-07-13T21:48:05.077Z,15.50
2018-07-13T21:53:03.718Z,15.50
2018-07-13T21:55:33.412Z,15.40
2018-07-13T21:58:03.067Z,15.30
2018-07-13T22:00:33.181Z,15.30
2018-07-13T22:03:06.664Z,15.30
2018-07-13T22:05:41.059Z,15.30
2018-07-13T22:08:11.125Z,15.20
2018-07-13T22:10:41.654Z,15.20
2018-07-13T22:13:12.242Z,15.20
2018-07-13T22:15:41.867Z,15.10
2018-07-13T22:18:11.214Z,15.10
2018-07-13T22:20:40.527Z,15.10
2018-07-13T22:23:10.537Z,15.10
2018-07-13T22:28:09.032Z,15.00
2018-07-13T22:30:38.531Z,15.00
2018-07-13T22:33:08.248Z,15.00
2018-07-13T22:35:37.661Z,15.00
2018-07-13T22:40:36.285Z,14.90
2018-07-13T22:43:05.708Z,14.90
2018-07-13T22:45:35.250Z,14.90
2018-07-13T22:48:04.703Z,14.90
2018-07-13T22:50:34.204Z,14.80
2018-07-13T22:53:03.759Z,14.80
2018-07-13T22:55:33.308Z,14.80
2018-07-13T22:58:02.671Z,14.80
2018-07-13T23:00:32.226Z,14.70
2018-07-13T23:03:01.626Z,14.60
2018-07-13T23:05:31.061Z,14.50
2018-07-13T23:08:00.508Z,14.40
2018-07-13T23:10:29.994Z,14.40
2018-07-13T23:12:59.494Z,14.40
2018-07-13T23:15:29.574Z,14.40
2018-07-13T23:20:27.925Z,14.40
2018-07-13T23:22:57.333Z,14.40
2018-07-13T23:25:26.732Z,14.40
2018-07-13T23:27:56.201Z,14.40
2018-07-13T23:30:25.973Z,14.40
2018-07-13T23:32:56.034Z,14.40
2018-07-13T23:35:26.577Z,14.40
2018-07-13T23:37:56.098Z,14.40
2018-07-13T23:40:25.701Z,14.40
2018-07-13T23:42:55.373Z,14.30
2018-07-13T23:45:25.063Z,14.30
2018-07-13T23:47:55.125Z,14.30
2018-07-13T23:50:24.597Z,14.30
2018-07-13T23:52:54.112Z,14.30
2018-07-13T23:55:23.873Z,14.30
2018-07-13T23:57:54.986Z,14.30
